Weather at Kenneth Kaunda International Airport

Public forecast

Using degrees Celsius for public forecast. Weather courtesy of forecast.io.

Closest aviation weather report (METAR) to Kenneth Kaunda International Airport

Report is more than 2 hours old.

Closest report is Kariba International Airport, 75.6 nm (140.1 km) SSE.

2024/07/16 15:00 (retrieved 5 hours ago)

FVKB 161500Z 32003KT CAVOK 29/06 Q1016

Closest aviation forecast (TAF) to Kenneth Kaunda International Airport

Forecast is more than 12 hours old.

Closest forecast is Royal Zambezi Lodge Airstrip, 54.6 nm (101.1 km) ESE.

2024/07/14 06:00 (retrieved 3 days ago)

TAF FLRZ 140400Z 1406/1512 09010KT 9000 HZ NSC BECMG 1412/1414 08005KT FM141600 07005KT CAVOK